aviador You're here:

HEGN Decoded Metar

HURGHADA in EGYPT
Report Time2017-11-20 22:00:00
UTC Time2017-11-20 22:55:22
Flight Rules vfr VFR
Wind320° at 10 kt
W.Decomp.*RWY 34: 9.1 kt HW 4.1 kt LCW
W.Rank320° ranks 6
Current wind is below 320° avg. (10.9)
Visibility9999 m
Phenomena:N/A
Clouds:N/A
Expected CloudBase > 4,800 ft AGL from Temp-Dew spread
CeilingNone
Temp19°C (ISA +4)
Dew Point07°C (46% RH)
AAT14.7°C
QNH1013 hPa
Density Alt663 ft
Elevation46 ft
Report Wrong Elevation
Raw Report
HEGN 202200Z 32010KT CAVOK 19/07 Q1013 NOSIG=

Extra information for HEGN:More info

Metar Taf Metar & Taf Last 4 Metars F.Rules Stats Wind Profile Meteogram Temp Stats Airport Information Weather charts Add Link Nearby VenuesMetar ALERT Operation Metar Decoded Social comments